Aérodrome :
LOGIN :

S'inscrire | Disclaimer

   EN    FR    IT 

 










Légende :    VFR   VFR Marginal   IFR   IFR Intensif   IFR Très Intensif
Visi : 
Plafond : 
>= 8 km
>= 3000ft
5 à 8 km
1000 à 3000 ft
1500m à 5 km
500 à 1000 ft
800 à 1500m
200 à 500 ft
< 800m
< 200 ft
Symboles :   Orages  Brouillard  Fortes neiges  Fortes précipitations  Vent > 20 kt
SIGMETs :   Divers  Orages  Givrage  Turbulence  Onde Orograph.  Cendres Volcan.






- Altitude de l'aérodrome : 436 ft
- Code IATA : ANG


LFBU - Angoulême Brie Champniers

DERNIER METAR :
  • 122100Z AUTO 17009KT 130V190 CAVOK 20/17 Q1013 TEMPO VRB15G25KT 4000 -TSRA BKN050CB

METARs EXPIRÉS :
  • 122030Z AUTO 16008KT 080V210 CAVOK 20/17 Q1013 TEMPO VRB15G25KT 4000 -TSRA BKN050CB
  • 122000Z AUTO 15009KT 100V180 9999 ///TCU 20/16 Q1013 TEMPO VRB15G25KT 4000 -TSRA BKN050CB
  • 121930Z AUTO 13009KT 100V170 9999 -RA NSC 20/16 Q1012 TEMPO VRB15G25KT 4000 -TSRA BKN050CB
  • 121900Z AUTO 14007KT 070V230 9999 ///CB 19/16 Q1012 TEMPO VRB15G25KT 4000 -TSRA
  • 121830Z AUTO 10015KT 070V130 9999 ///CB 19/15 Q1012 TEMPO VRB15G25KT 4000 -TSRA

TAF TAF LFBU
Valide du 12 à 18h jusqu'au 13 à 18h UTC


121700Z 1218/1318 27008KT 9999 FEW050CB
TEMPO 1218/1301 VRB15G25KT 4000 -TSRA BKN050CB
BECMG 1302/1304 17010KT 4000 RA SCT010 BKN040
PROB40 1303/1315 2000 TSRA BKN010 BKN050CB
BECMG 1315/1317 9999 NSW BKN020



MET'MAP, la Météo Aéronautique d'un coup d'oeil ! - Copyright ORBIFLY Décembre 2007 - Disclaimer

ORBIFLY MET'MAP TEAM :

Programmation & Développement : Alexandra Zaïnal
Sur une idée originale de : Baudouin d'Aumeries
Assistance à la programmation : Marc-Olivier Méhu
Soutien technique & logistique : Manuel Goepfert

Contact : metmap@orbifly.com




SOURCES & CREDITS :

   NOAA